Lake George, MN (56458)

7:19 AM CST on January 21, 2017 (GMT -0600)
kabakona lake | | Change Station

Elev 1332 ft 47.17 °N, 94.79 °W | Updated 51 seconds ago

Fog
Fog
33.0 °F
Feels Like 33 °F
N
3.0
Wind Variable Wind from ENE

Today
High -- | Low -- °F
--% Chance of Precip.
Yesterday
High -- | Low -- °F
Precip. -- in
Pressure 29.48 in
Visibility 1.0 miles
Clouds
Windchill 33 °F
Dew Point 32 °F
Humidity 98%
Rainfall 0.00 in
Snow Depth Not available.
7:57 AM 5:06 PM
Waning Crescent, 35% visible
METAR KPKD 211253Z AUTO 11007KT 1SM BR VV003 01/M01 A2943 RMK AO2 SLP982 T00111006
Pressure 29.48 in
Visibility 1.0 miles
Clouds
Windchill 33 °F
Dew Point 32 °F
Humidity 98%
Rainfall 0.00 in
Snow Depth Not available.
7:57 AM 5:06 PM
Waning Crescent, 35% visible
METAR KPKD 211253Z AUTO 11007KT 1SM BR VV003 01/M01 A2943 RMK AO2 SLP982 T00111006

Get Your Daily Forecast Email!

Thanks for signing up!

Be on the lookout for a verification email in your inbox.

You'll start receiving the daily forecast at 8 AM.

×

10-Day Weather Forecast

Almanac

Astronomy

Jan. 21, 2017 Rise Set
Actual Time
Civil Twilight
Nautical Twilight
Astronomical Twilight
Moon
Length of Visible Light
Length of Day
Tomorrow will be .
, % of the Moon is Illuminated

Today's Extremes

State Highs State Lows

Community

WunderPhotos

Upload Photos

1,962,540 photos uploaded!

WunderBlog® & News

Nearby

Air Quality

  Air Quality AQ Index Pollutant
Not available.

Snow Depth

Station Depth Elevation

Earthquake Activity

City Distance Mag. Time & Date
Minimum magnitude displayed is 2.5.

Coastal Water Temperatures

Place Temperature

Stations

Nearby Weather Stations

Station Location Temp. Windchill Dew Point Humidity Wind Precip. Elev Updated Type
                   

Watches & Warnings

There are currently no watches in effect.